createdAt,value
2019-01-09T00:01:28.487Z,24.00
2019-01-09T00:03:57.688Z,25.47
2019-01-09T00:06:26.847Z,29.13
2019-01-09T00:08:55.973Z,29.83
2019-01-09T00:11:25.141Z,24.57
2019-01-09T00:13:54.294Z,28.20
2019-01-09T00:16:23.515Z,30.10
2019-01-09T00:18:53.052Z,19.07
2019-01-09T00:21:22.218Z,26.97
2019-01-09T00:23:51.336Z,26.80
2019-01-09T00:26:20.507Z,20.53
2019-01-09T00:28:49.714Z,22.60
2019-01-09T00:31:18.800Z,18.50
2019-01-09T00:33:47.981Z,29.87
2019-01-09T00:36:17.530Z,21.10
2019-01-09T00:38:46.694Z,24.73
2019-01-09T00:41:15.869Z,24.27
2019-01-09T00:43:45.125Z,19.03
2019-01-09T00:46:14.308Z,24.97
2019-01-09T00:48:43.476Z,21.53
2019-01-09T00:51:12.845Z,26.63
2019-01-09T00:53:42.008Z,23.30
2019-01-09T00:56:11.174Z,31.63
2019-01-09T00:58:40.390Z,28.63
2019-01-09T01:01:09.945Z,21.37
2019-01-09T01:04:16.196Z,28.57
2019-01-09T01:07:36.861Z,29.87
2019-01-09T01:11:02.486Z,26.77
2019-01-09T01:13:54.766Z,23.83
2019-01-09T01:17:16.199Z,51.97
2019-01-09T01:20:25.636Z,58.47
2019-01-09T01:23:44.909Z,33.77
2019-01-09T01:26:53.057Z,21.83
2019-01-09T01:29:43.533Z,19.50
2019-01-09T01:32:48.049Z,24.83
2019-01-09T01:35:40.276Z,25.40
2019-01-09T01:38:27.082Z,16.70
2019-01-09T01:41:18.895Z,23.67
2019-01-09T01:44:00.041Z,27.60
2019-01-09T01:47:07.640Z,26.80
2019-01-09T01:50:03.505Z,25.67
2019-01-09T01:53:11.713Z,19.17
2019-01-09T01:56:12.518Z,18.27
2019-01-09T01:59:13.782Z,22.77
2019-01-09T02:02:20.971Z,19.83
2019-01-09T02:05:34.732Z,17.63
2019-01-09T02:08:41.984Z,25.40
2019-01-09T02:11:48.087Z,26.47
2019-01-09T02:15:02.808Z,21.83
2019-01-09T02:17:59.452Z,18.97
2019-01-09T02:21:09.201Z,25.43
2019-01-09T02:24:17.951Z,27.30
2019-01-09T02:27:13.412Z,26.13
2019-01-09T02:30:20.568Z,16.10
2019-01-09T02:32:49.742Z,26.13
2019-01-09T02:35:18.818Z,24.77
2019-01-09T02:37:48.020Z,22.93
2019-01-09T02:40:17.184Z,27.63
2019-01-09T02:42:46.365Z,25.53
2019-01-09T02:45:15.606Z,23.13
2019-01-09T02:47:44.766Z,27.47
2019-01-09T02:50:13.935Z,25.93
2019-01-09T02:52:43.496Z,21.30
2019-01-09T02:55:12.979Z,24.03
2019-01-09T02:57:42.171Z,24.20
2019-01-09T03:00:12.106Z,22.10
2019-01-09T03:02:41.283Z,25.30
2019-01-09T03:05:10.484Z,26.07
2019-01-09T03:07:39.693Z,22.97
2019-01-09T03:10:08.858Z,26.80
2019-01-09T03:12:38.072Z,18.57
2019-01-09T03:15:07.238Z,26.13
2019-01-09T03:17:36.406Z,21.40
2019-01-09T03:20:05.892Z,23.97
2019-01-09T03:22:35.064Z,25.43
2019-01-09T03:25:04.233Z,20.27
2019-01-09T03:27:33.366Z,25.73
2019-01-09T03:30:02.529Z,23.50
2019-01-09T03:32:31.700Z,27.43
2019-01-09T03:35:00.897Z,26.93
2019-01-09T03:37:30.060Z,25.67
2019-01-09T03:39:59.677Z,27.73
2019-01-09T03:42:28.868Z,25.80
2019-01-09T03:44:58.055Z,26.93
2019-01-09T03:47:27.214Z,26.50
2019-01-09T03:49:56.358Z,25.37
2019-01-09T03:52:25.564Z,27.03
2019-01-09T03:54:55.534Z,24.13
2019-01-09T03:57:24.723Z,27.93
2019-01-09T03:59:53.895Z,19.43
2019-01-09T04:02:23.068Z,21.80
2019-01-09T04:04:52.276Z,25.13
2019-01-09T04:07:21.429Z,24.70
2019-01-09T04:09:50.505Z,26.27
2019-01-09T04:12:19.683Z,25.03
2019-01-09T04:14:48.885Z,18.97
2019-01-09T04:17:18.077Z,24.60
2019-01-09T04:19:47.249Z,23.40
2019-01-09T04:22:16.438Z,27.00
2019-01-09T04:24:45.696Z,23.97
2019-01-09T04:27:14.876Z,27.43
2019-01-09T04:29:44.067Z,26.83
2019-01-09T04:32:13.268Z,26.60
2019-01-09T04:34:42.423Z,23.93
2019-01-09T04:37:11.648Z,25.93
2019-01-09T04:39:40.817Z,24.43
2019-01-09T04:42:09.991Z,26.23
2019-01-09T04:44:39.189Z,29.47
2019-01-09T04:47:08.374Z,29.57
2019-01-09T04:49:37.529Z,28.73
2019-01-09T04:52:06.800Z,29.20
2019-01-09T04:54:35.967Z,27.17
2019-01-09T04:57:05.127Z,21.90
2019-01-09T04:59:35.196Z,27.10
2019-01-09T05:02:04.350Z,27.47
2019-01-09T05:04:33.625Z,29.30
2019-01-09T05:07:02.730Z,30.07
2019-01-09T05:09:31.888Z,24.37
2019-01-09T05:12:01.088Z,28.57
2019-01-09T05:14:30.236Z,25.83
2019-01-09T05:16:59.380Z,27.40
2019-01-09T05:19:28.468Z,24.10
2019-01-09T05:21:57.628Z,29.03
2019-01-09T05:24:26.810Z,26.53
2019-01-09T05:26:55.977Z,26.00
2019-01-09T05:29:25.139Z,28.63
2019-01-09T05:31:54.347Z,26.70
2019-01-09T05:34:23.499Z,25.60
2019-01-09T05:36:52.659Z,28.87
2019-01-09T05:39:21.926Z,39.80
2019-01-09T05:41:50.996Z,33.83
2019-01-09T05:44:20.149Z,46.03
2019-01-09T05:46:49.389Z,37.30
2019-01-09T05:49:18.538Z,39.00
2019-01-09T05:51:47.686Z,40.40
2019-01-09T05:54:17.299Z,35.30
2019-01-09T05:56:46.494Z,29.47
2019-01-09T05:59:15.681Z,28.07
2019-01-09T06:01:44.844Z,30.30
2019-01-09T06:04:14.022Z,37.47
2019-01-09T06:06:43.197Z,29.87
2019-01-09T06:09:12.352Z,28.53
2019-01-09T06:11:41.581Z,27.67
2019-01-09T06:14:10.777Z,28.47
2019-01-09T06:16:39.956Z,28.20
2019-01-09T06:19:09.173Z,29.10
2019-01-09T06:21:38.340Z,28.20
2019-01-09T06:24:07.537Z,28.60
2019-01-09T06:26:38.591Z,28.67
2019-01-09T06:29:07.762Z,30.17
2019-01-09T06:31:36.950Z,26.33
2019-01-09T06:34:06.165Z,27.43
2019-01-09T06:36:35.381Z,27.47
2019-01-09T06:39:05.728Z,27.53
2019-01-09T06:41:34.894Z,27.63
2019-01-09T06:44:04.054Z,29.57
2019-01-09T06:46:33.716Z,29.73
2019-01-09T06:49:02.892Z,30.13
2019-01-09T06:51:32.066Z,29.57
2019-01-09T06:54:01.291Z,28.13
2019-01-09T06:56:30.439Z,29.47
2019-01-09T06:58:59.633Z,29.57
2019-01-09T07:01:28.810Z,29.40
2019-01-09T07:03:57.980Z,28.93
2019-01-09T07:06:27.185Z,30.57
2019-01-09T07:08:57.099Z,29.33
2019-01-09T07:11:26.288Z,32.90
2019-01-09T07:13:55.463Z,30.83
2019-01-09T07:16:25.142Z,29.33
2019-01-09T07:18:54.568Z,28.27
2019-01-09T07:21:23.776Z,31.43
2019-01-09T07:23:52.967Z,29.60
2019-01-09T07:26:22.526Z,28.80
2019-01-09T07:28:51.710Z,29.23
2019-01-09T07:31:21.268Z,29.77
2019-01-09T07:33:50.405Z,31.13
2019-01-09T07:36:19.603Z,27.80
2019-01-09T07:38:48.802Z,25.83
2019-01-09T07:41:17.959Z,30.37
2019-01-09T07:43:47.127Z,29.83
2019-01-09T07:46:16.384Z,32.43
2019-01-09T07:48:45.555Z,30.30
2019-01-09T07:51:14.730Z,30.37
2019-01-09T07:53:44.757Z,32.47
2019-01-09T07:56:14.150Z,30.60
2019-01-09T07:58:43.333Z,32.70
2019-01-09T08:01:12.492Z,30.57
2019-01-09T08:03:42.256Z,30.37
2019-01-09T08:06:11.677Z,31.40
2019-01-09T08:08:40.836Z,31.53
2019-01-09T08:11:10.003Z,30.47
2019-01-09T08:13:39.542Z,30.63
2019-01-09T08:16:08.720Z,32.83
2019-01-09T08:18:37.906Z,42.53
2019-01-09T08:21:07.086Z,37.43
2019-01-09T08:23:36.236Z,36.57
2019-01-09T08:26:05.549Z,37.13
2019-01-09T08:28:35.755Z,36.33
2019-01-09T08:31:04.967Z,38.83
2019-01-09T08:33:34.131Z,34.40
2019-01-09T08:36:03.380Z,37.97
2019-01-09T08:38:32.554Z,33.67
2019-01-09T08:41:01.835Z,39.23
2019-01-09T08:43:31.415Z,32.00
2019-01-09T08:46:00.586Z,30.90
2019-01-09T08:48:30.142Z,33.37
2019-01-09T08:50:59.323Z,42.63
2019-01-09T08:53:28.488Z,47.67
2019-01-09T08:55:58.199Z,37.47
2019-01-09T08:58:27.375Z,34.07
2019-01-09T09:00:56.539Z,30.50
2019-01-09T09:03:25.760Z,31.87
2019-01-09T09:05:54.931Z,31.57
2019-01-09T09:08:24.113Z,30.40
2019-01-09T09:10:53.331Z,34.10
2019-01-09T09:13:34.384Z,31.97
2019-01-09T09:16:03.576Z,32.17
2019-01-09T09:18:32.752Z,36.47
2019-01-09T09:21:01.961Z,36.20
2019-01-09T09:23:31.142Z,32.30
2019-01-09T09:26:00.332Z,32.70
2019-01-09T09:28:29.965Z,31.00
2019-01-09T09:30:59.064Z,36.47
2019-01-09T09:33:28.260Z,30.83
2019-01-09T09:35:57.333Z,34.40
2019-01-09T09:38:26.501Z,34.10
2019-01-09T09:40:57.179Z,38.43
2019-01-09T09:43:26.313Z,36.70
2019-01-09T09:45:55.524Z,35.73
2019-01-09T09:48:24.700Z,32.63
2019-01-09T09:50:53.853Z,35.57
2019-01-09T09:53:22.966Z,30.60
2019-01-09T09:55:52.172Z,31.20
2019-01-09T09:58:21.349Z,35.53
2019-01-09T10:00:50.517Z,31.90
2019-01-09T10:03:19.727Z,33.23
2019-01-09T10:05:48.900Z,32.90
2019-01-09T10:08:18.703Z,34.60
2019-01-09T10:10:47.952Z,35.17
2019-01-09T10:13:17.046Z,32.60
2019-01-09T10:15:48.618Z,32.83
2019-01-09T10:18:17.494Z,33.43
2019-01-09T10:20:46.718Z,33.70
2019-01-09T10:23:15.897Z,35.73
2019-01-09T10:25:45.048Z,36.30
2019-01-09T10:28:14.212Z,35.57
2019-01-09T10:30:43.379Z,38.77
2019-01-09T10:33:12.572Z,38.23
2019-01-09T10:35:41.767Z,39.27
2019-01-09T10:38:10.936Z,38.83
2019-01-09T10:40:40.101Z,35.53
2019-01-09T10:43:09.269Z,40.67
2019-01-09T10:45:38.431Z,41.27
2019-01-09T10:48:07.576Z,38.63
2019-01-09T10:50:36.729Z,38.03
2019-01-09T10:53:05.923Z,39.10
2019-01-09T10:55:35.099Z,40.07
2019-01-09T10:58:04.579Z,39.87
2019-01-09T11:00:33.785Z,38.67
2019-01-09T11:03:02.938Z,41.20
2019-01-09T11:05:32.108Z,41.20
2019-01-09T11:08:01.306Z,38.83
2019-01-09T11:10:30.478Z,37.73
2019-01-09T11:12:59.643Z,39.50
2019-01-09T11:15:29.374Z,39.77
2019-01-09T11:17:59.036Z,40.30
2019-01-09T11:20:28.223Z,51.27
2019-01-09T11:22:57.489Z,41.17
2019-01-09T11:25:28.337Z,36.47
2019-01-09T11:27:57.564Z,56.23
2019-01-09T11:30:26.724Z,54.57
2019-01-09T11:32:55.899Z,47.73
2019-01-09T11:35:26.298Z,49.33
2019-01-09T11:37:55.416Z,39.23
2019-01-09T11:40:24.602Z,40.73
2019-01-09T11:42:53.832Z,44.07
2019-01-09T11:45:23.014Z,40.70
2019-01-09T11:47:52.195Z,36.10
2019-01-09T11:50:21.393Z,86.40
2019-01-09T11:52:50.580Z,86.97
2019-01-09T11:55:19.775Z,113.73
2019-01-09T11:57:48.967Z,101.47
2019-01-09T12:00:30.836Z,45.33
2019-01-09T12:03:00.009Z,52.77
2019-01-09T12:05:29.194Z,121.60
2019-01-09T12:07:58.352Z,72.03
2019-01-09T12:10:30.161Z,54.20
2019-01-09T12:12:58.800Z,53.40
2019-01-09T12:15:28.003Z,44.97
2019-01-09T12:17:57.229Z,50.50
2019-01-09T12:20:26.382Z,44.30
2019-01-09T12:22:55.552Z,40.10
2019-01-09T12:25:24.767Z,43.57
2019-01-09T12:27:53.934Z,54.97
2019-01-09T12:30:29.894Z,73.57
2019-01-09T12:32:59.121Z,92.03
2019-01-09T12:35:28.282Z,80.23
2019-01-09T12:37:58.048Z,78.17
2019-01-09T12:40:27.133Z,69.53
2019-01-09T12:42:56.316Z,63.50
2019-01-09T12:45:25.544Z,51.40
2019-01-09T12:47:54.743Z,51.50
2019-01-09T12:50:25.494Z,59.73
2019-01-09T12:52:54.749Z,54.23
2019-01-09T12:55:24.326Z,60.30
2019-01-09T12:57:53.532Z,60.67
2019-01-09T13:00:31.625Z,52.57
2019-01-09T13:03:00.845Z,49.30
2019-01-09T13:05:32.843Z,48.60
2019-01-09T13:08:01.957Z,49.70
2019-01-09T13:10:31.150Z,51.87
2019-01-09T13:13:00.324Z,47.70
2019-01-09T13:15:29.463Z,48.77
2019-01-09T13:17:58.671Z,49.50
2019-01-09T13:20:27.826Z,51.73
2019-01-09T13:22:57.822Z,48.60
2019-01-09T13:25:27.039Z,49.70
2019-01-09T13:27:56.210Z,51.13
2019-01-09T13:30:25.374Z,51.90
2019-01-09T13:32:54.501Z,50.70
2019-01-09T13:35:24.015Z,52.13
2019-01-09T13:37:53.254Z,58.37
2019-01-09T13:40:22.501Z,52.90
2019-01-09T13:42:51.667Z,64.53
2019-01-09T13:45:22.915Z,51.17
2019-01-09T13:47:52.127Z,61.63
2019-01-09T13:50:21.998Z,51.47
2019-01-09T13:52:51.119Z,51.07
2019-01-09T13:55:20.739Z,73.40
2019-01-09T13:57:49.947Z,71.40
2019-01-09T14:00:21.088Z,64.93
2019-01-09T14:02:50.289Z,52.83
2019-01-09T14:05:19.458Z,53.77
2019-01-09T14:07:48.692Z,48.67
2019-01-09T14:10:20.488Z,51.97
2019-01-09T14:12:49.689Z,54.33
2019-01-09T14:15:20.139Z,51.80
2019-01-09T14:17:49.381Z,48.50
2019-01-09T14:20:18.553Z,57.20
2019-01-09T14:22:48.213Z,69.37
2019-01-09T14:25:17.445Z,75.97
2019-01-09T14:27:47.018Z,78.57
2019-01-09T14:30:21.569Z,82.70
2019-01-09T14:32:50.778Z,74.47
2019-01-09T14:35:19.993Z,68.70
2019-01-09T14:37:49.208Z,84.43
2019-01-09T14:40:18.463Z,84.53
2019-01-09T14:42:47.636Z,80.13
2019-01-09T14:45:16.870Z,80.27
2019-01-09T14:47:46.355Z,69.40
2019-01-09T14:50:18.183Z,74.13
2019-01-09T14:52:49.449Z,66.17
2019-01-09T14:55:18.745Z,60.40
2019-01-09T14:57:49.831Z,57.53
2019-01-09T15:00:23.564Z,57.27
2019-01-09T15:02:52.933Z,61.17
2019-01-09T15:05:23.382Z,56.53
2019-01-09T15:07:52.590Z,57.63
2019-01-09T15:10:27.020Z,53.23
2019-01-09T15:12:56.789Z,51.47
2019-01-09T15:15:26.017Z,53.60
2019-01-09T15:17:55.285Z,50.67
2019-01-09T15:20:24.505Z,50.17
2019-01-09T15:22:53.723Z,53.97
2019-01-09T15:25:22.957Z,48.93
2019-01-09T15:27:52.263Z,46.20
2019-01-09T15:30:23.544Z,48.67
2019-01-09T15:32:53.493Z,50.40
2019-01-09T15:35:22.652Z,60.47
2019-01-09T15:37:51.872Z,58.87
2019-01-09T15:40:23.400Z,55.43
2019-01-09T15:42:52.642Z,48.67
2019-01-09T15:45:21.873Z,49.17
2019-01-09T15:47:51.131Z,55.37
2019-01-09T15:50:20.975Z,54.63
2019-01-09T15:52:50.275Z,55.50
2019-01-09T15:55:19.537Z,53.70
2019-01-09T15:57:49.106Z,58.07
2019-01-09T16:00:30.133Z,53.73
2019-01-09T16:03:01.822Z,55.83
2019-01-09T16:05:31.036Z,58.23
2019-01-09T16:08:02.281Z,59.90
2019-01-09T16:10:32.025Z,59.27
2019-01-09T16:13:01.243Z,64.90
2019-01-09T16:15:32.675Z,69.77
2019-01-09T16:18:01.977Z,66.50
2019-01-09T16:20:31.146Z,71.87
2019-01-09T16:23:00.495Z,68.57
2019-01-09T16:25:29.737Z,74.00
2019-01-09T16:27:58.965Z,93.53
2019-01-09T16:31:12.586Z,122.23
2019-01-09T16:33:42.311Z,109.03
2019-01-09T16:36:11.885Z,129.37
2019-01-09T16:38:41.066Z,115.13
2019-01-09T16:41:10.346Z,106.83
2019-01-09T16:43:39.594Z,114.70
2019-01-09T16:49:49.981Z,172.80
2019-01-09T16:52:20.083Z,172.13
2019-01-09T16:54:49.339Z,167.07
2019-01-09T16:57:19.069Z,208.90
2019-01-09T16:59:48.342Z,145.90
2019-01-09T17:02:17.918Z,116.83
2019-01-09T17:04:47.591Z,130.87
2019-01-09T17:07:16.833Z,135.77
2019-01-09T17:09:46.057Z,143.20
2019-01-09T17:12:15.282Z,112.03
2019-01-09T17:14:44.485Z,171.03
2019-01-09T17:17:13.727Z,154.03
2019-01-09T17:19:43.017Z,138.37
2019-01-09T17:22:12.247Z,155.13
2019-01-09T17:24:41.445Z,119.73
2019-01-09T17:27:10.671Z,110.07
2019-01-09T17:29:39.872Z,140.60
2019-01-09T17:32:09.121Z,133.73
2019-01-09T17:34:39.395Z,107.33
2019-01-09T17:37:08.607Z,156.37
2019-01-09T17:39:37.844Z,132.10
2019-01-09T17:42:07.134Z,106.33
2019-01-09T17:44:38.049Z,134.77
2019-01-09T17:47:07.260Z,96.60
2019-01-09T17:49:36.906Z,117.53
2019-01-09T17:52:06.147Z,135.53
2019-01-09T17:54:35.406Z,135.50
2019-01-09T17:57:07.218Z,108.63
2019-01-09T17:59:36.470Z,112.03
2019-01-09T18:02:05.768Z,130.50
2019-01-09T18:04:35.052Z,113.27
2019-01-09T18:07:04.279Z,104.53
2019-01-09T18:09:33.540Z,92.77
2019-01-09T18:12:03.151Z,94.47
2019-01-09T18:14:32.422Z,111.37
2019-01-09T18:17:02.964Z,139.70
2019-01-09T18:19:32.188Z,105.67
2019-01-09T18:22:01.421Z,107.47
2019-01-09T18:24:30.664Z,112.80
2019-01-09T18:26:59.930Z,99.97
2019-01-09T18:29:29.855Z,104.17
2019-01-09T18:32:40.096Z,84.13
2019-01-09T18:35:49.483Z,103.17
2019-01-09T18:39:07.651Z,82.20
2019-01-09T18:42:27.440Z,68.13
2019-01-09T18:45:25.408Z,67.63
2019-01-09T18:48:30.420Z,64.07
2019-01-09T18:51:52.804Z,81.17
2019-01-09T18:54:21.982Z,79.63
2019-01-09T18:56:51.333Z,88.70
2019-01-09T18:59:20.614Z,91.30
2019-01-09T19:01:49.865Z,75.40
2019-01-09T19:04:19.089Z,71.87
2019-01-09T19:06:50.129Z,74.57
2019-01-09T19:09:19.663Z,66.10
2019-01-09T19:11:50.671Z,69.60
2019-01-09T19:14:19.825Z,70.77
2019-01-09T19:16:49.045Z,62.93
2019-01-09T19:19:18.280Z,58.37
2019-01-09T19:21:47.834Z,65.93
2019-01-09T19:24:18.613Z,77.20
2019-01-09T19:26:47.886Z,81.10
2019-01-09T19:29:18.579Z,64.90
2019-01-09T19:31:47.916Z,69.23
2019-01-09T19:34:17.194Z,74.40
2019-01-09T19:36:46.475Z,54.80
2019-01-09T19:39:15.742Z,72.93
2019-01-09T19:41:44.956Z,63.23
2019-01-09T19:44:15.893Z,59.37
2019-01-09T19:46:45.152Z,54.97
2019-01-09T19:49:14.374Z,53.83
2019-01-09T19:51:43.682Z,50.03
2019-01-09T19:54:12.939Z,51.90
2019-01-09T19:56:42.219Z,54.13
2019-01-09T19:59:11.488Z,57.33
2019-01-09T20:01:40.684Z,55.63
2019-01-09T20:04:09.916Z,58.07
2019-01-09T20:06:39.585Z,54.13
2019-01-09T20:09:10.338Z,57.07
2019-01-09T20:11:39.623Z,51.47
2019-01-09T20:14:08.874Z,50.50
2019-01-09T20:16:38.544Z,53.20
2019-01-09T20:19:07.872Z,61.03
2019-01-09T20:21:37.390Z,67.07
2019-01-09T20:24:06.681Z,66.17
2019-01-09T20:26:36.180Z,62.87
2019-01-09T20:29:05.478Z,72.00
2019-01-09T20:31:35.100Z,88.10
2019-01-09T20:34:04.844Z,83.57
2019-01-09T20:36:34.119Z,82.57
2019-01-09T20:39:04.393Z,71.17
2019-01-09T20:41:35.427Z,64.57
2019-01-09T20:44:04.662Z,77.43
2019-01-09T20:46:33.985Z,71.37
2019-01-09T20:49:04.620Z,71.00
2019-01-09T20:51:33.985Z,79.43
2019-01-09T20:54:03.218Z,80.80
2019-01-09T20:56:32.500Z,80.37
2019-01-09T20:59:01.675Z,63.67
2019-01-09T21:01:31.043Z,62.10
2019-01-09T21:04:00.394Z,63.30
2019-01-09T21:06:29.595Z,62.40
2019-01-09T21:08:59.780Z,60.13
2019-01-09T21:11:29.591Z,52.43
2019-01-09T21:13:58.868Z,61.53
2019-01-09T21:16:28.090Z,62.47
2019-01-09T21:18:57.305Z,64.57
2019-01-09T21:21:26.602Z,59.10
2019-01-09T21:23:55.825Z,63.90
2019-01-09T21:26:25.062Z,58.60
2019-01-09T21:28:54.595Z,63.00
2019-01-09T21:31:23.798Z,56.70
2019-01-09T21:33:52.989Z,68.27
2019-01-09T21:36:22.218Z,67.30
2019-01-09T21:38:51.425Z,59.20
2019-01-09T21:41:20.620Z,67.67
2019-01-09T21:43:49.828Z,58.77
2019-01-09T21:46:19.033Z,56.10
2019-01-09T21:48:48.240Z,63.13
2019-01-09T21:51:18.905Z,59.87
2019-01-09T21:53:48.811Z,57.03
2019-01-09T21:56:18.321Z,54.30
2019-01-09T21:58:47.568Z,63.33
2019-01-09T22:01:16.770Z,63.30
2019-01-09T22:03:46.052Z,53.83
2019-01-09T22:06:15.341Z,56.77
2019-01-09T22:08:45.423Z,59.00
2019-01-09T22:11:14.673Z,58.07
2019-01-09T22:13:43.890Z,57.87
2019-01-09T22:16:13.112Z,56.83
2019-01-09T22:18:42.371Z,69.17
2019-01-09T22:21:11.556Z,51.73
2019-01-09T22:23:40.879Z,66.30
2019-01-09T22:26:10.457Z,166.70
2019-01-09T22:28:39.732Z,270.47
2019-01-09T22:31:10.524Z,199.00
2019-01-09T22:33:39.833Z,81.43
2019-01-09T22:36:09.054Z,66.50
2019-01-09T22:38:40.793Z,61.60
2019-01-09T22:41:09.637Z,58.33
2019-01-09T22:43:38.919Z,65.60
2019-01-09T22:46:08.436Z,161.83
2019-01-09T22:48:37.719Z,138.20
2019-01-09T22:51:07.475Z,112.50
2019-01-09T22:53:36.814Z,59.00
2019-01-09T22:56:07.258Z,128.80
2019-01-09T22:58:36.443Z,85.70
2019-01-09T23:01:16.321Z,79.73
2019-01-09T23:03:45.798Z,72.00
2019-01-09T23:06:15.202Z,65.00
2019-01-09T23:08:44.429Z,75.53
2019-01-09T23:11:13.637Z,91.47
2019-01-09T23:13:42.808Z,94.53
2019-01-09T23:16:11.985Z,89.27
2019-01-09T23:18:41.167Z,58.70
2019-01-09T23:21:10.363Z,56.30
2019-01-09T23:23:40.294Z,58.83
2019-01-09T23:26:09.477Z,85.73
2019-01-09T23:28:38.634Z,61.27
2019-01-09T23:31:07.838Z,64.10
2019-01-09T23:33:37.011Z,60.57
2019-01-09T23:36:06.488Z,66.17
2019-01-09T23:38:36.165Z,61.47
2019-01-09T23:41:05.919Z,67.60
2019-01-09T23:43:35.105Z,65.40
2019-01-09T23:46:04.566Z,98.73
2019-01-09T23:48:33.825Z,90.33
2019-01-09T23:51:03.029Z,61.70
2019-01-09T23:53:32.397Z,67.23
2019-01-09T23:56:01.629Z,76.40
2019-01-09T23:58:30.766Z,59.23
